Friday, November 28, 2014
09:43 UTC
  |  Log In   |  Register Free
Airport Search:

Corpus Christi International Airport
(KCRP)

FAA data valid effective November 13, 2014 - January 08, 2015 (unless otherwise noted).

 
 
 
 
 
 
 
 
 
 
 
 
 
 

Current Aviation Weather for Corpus Christi International Airport (KCRP)

The most recent METAR observation for KCRP was updated at: 0911
METAR Summary (Translated METAR)
KCRP
280851Z 12005KT 10SM FEW080 13/12 A3032 RMK AO2 SLP267 T01330122 56016 $
KRBO
272335Z AUTO 08009KT 10SM CLR 18/13 A3039 RMK AO2 T01780127
(10.1 nm NW from KCRP)
KNGP
280856Z AUTO 10004KT 10SM CLR 15/15 A3032 RMK AO2 SLP266 T01500150 56016
(12.1 nm SE from KCRP)
TAF Summary (Translated TAF)
KCRP
280530Z 2806/2906 08007KT P6SM FEW070 FM280800 VRB03KT 6SM BR SCT015 FM281500 18007KT P6SM BKN030 FM281900 16014G19KT P6SM SCT035 FM290000 16008KT P6SM FEW030
KNGP
(12.1 nm SE from KCRP)
2723/2823 08013KT 9999 FEW030 SCT250 QNH3033INS TEMPO 2808/2811 6000 BR BECMG 2814/2816 16006KT SCT030 QNH3025INS AUTOMATED SENSOR METWATCH 2803 TIL 2812 T15/2812Z T21/2821Z FN00067
  Airport Weather Conditions for KCRP

 Current Weather at CRP
56° F
A Few Clouds
Southeast winds at 5.8 mph
CRP NOAA Radar

Pressure: 30.32 in
Humidity: 93%
Wind: Southeast at 5.8 MPH (5 KT)
Dew Point: 54.0°F
Visibility: 10.00 mi


Airport Weather Forecast for KCRP

Translated METAR and TAF for KCRP
Translated METAR for KCRP (0938 UTC 28 November 2014)
found at http://aviationweather.gov/adds/metars/
 
METAR text: KCRP 280851Z 12005KT 10SM FEW080 13/12 A3032 RMK AO2 SLP267 T01330122 56016 $
Conditions at: KCRP (CORPUS CHRISTI , TX, US) observed 0851 UTC 28 November 2014
Temperature: 13.3°C (56°F)
Dewpoint: 12.2°C (54°F) [RH = 93%]
Pressure (altimeter): 30.32 inches Hg (1026.8 mb)
[Sea-level pressure: 1026.7 mb]
Winds: from the ESE (120 degrees) at 6 MPH (5 knots; 2.6 m/s)
Visibility: 10 or more miles (16+ km)
Ceiling: at least 12,000 feet AGL
Clouds: few clouds at 8000 feet AGL
Weather:
SOME DATA ABOVE MAY BE INACCURATE!!!
"$" is an indication the sensor requires maintenance
Translated TAF for KCRP
Forecast for: KCRP (CORPUS CHRISTI , TX, US)
TAF Text: KCRP 280530Z 2806/2906 08007KT P6SM FEW070
Forecast period: 0600 to 0800 UTC 28 November 2014
Forecast type: FROM: standard forecast or significant change
Winds: from the E (80 degrees) at 8 MPH (7 knots; 3.6 m/s)
Visibility: 6 or more miles (10+ km)
Clouds: few clouds at 7000 feet AGL
Weather: no significant weather forecast for this period
TAF Text: FM280800 VRB03KT 6SM BR SCT015
Forecast period: 0800 to 1500 UTC 28 November 2014
Forecast type: FROM: standard forecast or significant change
Winds: variable direction winds at 3 MPH (3 knots; 1.6 m/s)
Visibility: 6 miles (10 km)
Clouds: scattered clouds at 1500 feet AGL
Weather: BR  (mist)
TAF Text: FM281500 18007KT P6SM BKN030
Forecast period: 1500 to 1900 UTC 28 November 2014
Forecast type: FROM: standard forecast or significant change
Winds: from the S (180 degrees) at 8 MPH (7 knots; 3.6 m/s)
Visibility: 6 or more miles (10+ km)
Ceiling: 3000 feet AGL
Clouds: broken clouds at 3000 feet AGL
Weather: no significant weather forecast for this period
TAF Text: FM281900 16014G19KT P6SM SCT035
Forecast period: 1900 UTC 28 November 2014 to 0000 UTC 29 November 2014
Forecast type: FROM: standard forecast or significant change
Winds: from the SSE (160 degrees) at 16 MPH (14 knots; 7.3 m/s)
gusting to 22 MPH (19 knots; 9.9 m/s)
Visibility: 6 or more miles (10+ km)
Clouds: scattered clouds at 3500 feet AGL
Weather: no significant weather forecast for this period
TAF Text: FM290000 16008KT P6SM FEW030
Forecast period: 0000 to 0600 UTC 29 November 2014
Forecast type: FROM: standard forecast or significant change
Winds: from the SSE (160 degrees) at 9 MPH (8 knots; 4.2 m/s)
Visibility: 6 or more miles (10+ km)
Clouds: few clouds at 3000 feet AGL
Weather: no significant weather forecast for this period

Find All Airport Services Find A Hotel Find A Rental Car Find A Golf Course Find A Restaurant $100 Hamburger



FBO's on the Field
FBO Company Facility Photos Services Transportation Aviation Fuel Prices: Prices include tax
Catering Weather Repair Courtesy Rental Type 100LL JetA JetA+ MOGAS 8087
 
Atlantic Aviation

This FBO has not yet been rated
FS:Independent
Last Updated: Nov-26
Login to update fuel prices
SS:
Contact Atlantic AviationMore FBO Information
 
Signature Flight Support

This FBO has not yet been rated
FS:Avfuel
Last Updated: Nov-26
Login to update fuel prices
SS:
Contact Signature Flight SupportMore FBO Information
 
Add another FBO Facility Photos Catering Weather Repair Courtesy Rental Type 100LL JetA JetA+ MOGAS 8087
Services Transportation Aviation Fuel Prices: Prices include tax


model-print
model-print
model-print
model-print